createdAt,value
2023-05-19T00:00:01.026Z,100267.03
2023-05-19T00:02:33.573Z,100261.78
2023-05-19T00:05:03.106Z,100269.13
2023-05-19T00:07:32.506Z,100260.50
2023-05-19T00:09:59.496Z,100260.25
2023-05-19T00:12:26.516Z,100260.28
2023-05-19T00:14:53.389Z,100263.41
2023-05-19T00:17:20.582Z,100260.03
2023-05-19T00:19:47.228Z,100258.97
2023-05-19T00:22:15.066Z,100262.13
2023-05-19T00:24:42.040Z,100262.91
2023-05-19T00:27:08.673Z,100250.13
2023-05-19T00:29:35.263Z,100253.50
2023-05-19T00:32:02.061Z,100246.72
2023-05-19T00:34:28.812Z,100252.44
2023-05-19T00:36:55.623Z,100253.19
2023-05-19T00:39:22.400Z,100247.44
2023-05-19T00:41:49.059Z,100243.50
2023-05-19T00:44:15.741Z,100248.44
2023-05-19T00:46:42.549Z,100247.59
2023-05-19T00:49:09.255Z,100249.13
2023-05-19T00:51:37.205Z,100249.88
2023-05-19T00:54:04.222Z,100250.34
2023-05-19T00:56:31.683Z,100247.13
2023-05-19T00:59:00.841Z,100251.97
2023-05-19T01:01:28.201Z,100247.69
2023-05-19T01:03:59.024Z,100240.31
2023-05-19T01:06:27.706Z,100252.22
2023-05-19T01:08:54.364Z,100251.09
2023-05-19T01:11:21.552Z,100238.47
2023-05-19T01:13:48.517Z,100237.38
2023-05-19T01:16:30.782Z,100241.47
2023-05-19T01:19:05.129Z,100242.44
2023-05-19T01:21:56.772Z,100241.09
2023-05-19T01:24:30.580Z,100236.31
2023-05-19T01:27:35.825Z,100239.66
2023-05-19T01:30:25.860Z,100240.63
2023-05-19T01:33:03.448Z,100239.66
2023-05-19T01:35:31.197Z,100242.44
2023-05-19T01:38:00.139Z,100242.13
2023-05-19T01:40:28.191Z,100242.34
2023-05-19T01:42:58.606Z,100248.28
2023-05-19T01:45:28.013Z,100242.53
2023-05-19T01:47:57.657Z,100249.50
2023-05-19T01:50:24.746Z,100246.66
2023-05-19T01:52:52.455Z,100251.84
2023-05-19T01:55:19.282Z,100245.56
2023-05-19T01:58:23.172Z,100247.84
2023-05-19T02:00:59.463Z,100243.66
2023-05-19T02:03:49.435Z,100244.38
2023-05-19T02:06:19.719Z,100239.88
2023-05-19T02:08:52.253Z,100234.19
2023-05-19T02:11:25.836Z,100235.47
2023-05-19T02:13:56.873Z,100243.13
2023-05-19T02:16:28.623Z,100246.34
2023-05-19T02:18:56.482Z,100248.94
2023-05-19T02:21:23.221Z,100234.34
2023-05-19T02:23:50.587Z,100232.94
2023-05-19T02:26:19.845Z,100235.94
2023-05-19T02:28:46.560Z,100233.81
2023-05-19T02:31:13.210Z,100235.88
2023-05-19T02:33:39.911Z,100232.47
2023-05-19T02:36:06.945Z,100228.91
2023-05-19T02:38:33.608Z,100234.75
2023-05-19T02:41:00.709Z,100238.94
2023-05-19T02:43:27.388Z,100235.00
2023-05-19T02:45:54.101Z,100231.13
2023-05-19T02:48:20.704Z,100236.81
2023-05-19T02:50:47.334Z,100233.41
2023-05-19T02:53:14.040Z,100231.91
2023-05-19T02:55:40.708Z,100231.66
2023-05-19T02:58:07.449Z,100231.44
2023-05-19T03:00:34.377Z,100230.31
2023-05-19T03:03:03.028Z,100221.72
2023-05-19T03:05:32.694Z,100223.00
2023-05-19T03:07:59.313Z,100222.91
2023-05-19T03:10:25.967Z,100221.59
2023-05-19T03:12:52.628Z,100217.09
2023-05-19T03:15:19.364Z,100214.72
2023-05-19T03:17:46.119Z,100216.00
2023-05-19T03:20:13.012Z,100203.75
2023-05-19T03:22:39.726Z,100208.41
2023-05-19T03:25:06.616Z,100210.78
2023-05-19T03:27:33.221Z,100209.44
2023-05-19T03:29:59.932Z,100209.38
2023-05-19T03:32:26.953Z,100213.94
2023-05-19T03:34:53.884Z,100213.63
2023-05-19T03:37:20.756Z,100223.50
2023-05-19T03:39:47.414Z,100234.16
2023-05-19T03:42:14.110Z,100227.59
2023-05-19T03:44:40.784Z,100228.78
2023-05-19T03:47:07.594Z,100232.50
2023-05-19T03:49:53.139Z,100217.41
2023-05-19T03:52:39.764Z,100224.50
2023-05-19T03:55:16.598Z,100223.81
2023-05-19T03:57:44.436Z,100228.06
2023-05-19T04:00:12.333Z,100223.22
2023-05-19T04:02:41.115Z,100229.78
2023-05-19T04:05:08.573Z,100230.88
2023-05-19T04:07:37.021Z,100234.09
2023-05-19T04:10:05.570Z,100234.97
2023-05-19T04:12:33.012Z,100237.63
2023-05-19T04:15:00.169Z,100229.88
2023-05-19T04:17:27.506Z,100229.41
2023-05-19T04:19:55.057Z,100225.75
2023-05-19T04:22:22.516Z,100225.81
2023-05-19T04:24:51.611Z,100232.44
2023-05-19T04:27:18.397Z,100230.06
2023-05-19T04:29:48.305Z,100234.38
2023-05-19T04:32:17.637Z,100233.94
2023-05-19T04:34:47.434Z,100237.72
2023-05-19T04:37:20.632Z,100242.19
2023-05-19T04:39:48.257Z,100240.91
2023-05-19T04:42:19.181Z,100245.66
2023-05-19T04:44:51.645Z,100238.78
2023-05-19T04:47:21.562Z,100235.16
2023-05-19T04:49:49.350Z,100232.38
2023-05-19T04:52:21.643Z,100241.28
2023-05-19T04:54:48.428Z,100229.41
2023-05-19T04:57:15.131Z,100231.03
2023-05-19T04:59:41.799Z,100225.88
2023-05-19T05:02:08.585Z,100230.69
2023-05-19T05:04:38.409Z,100226.81
2023-05-19T05:07:06.034Z,100238.09
2023-05-19T05:09:33.346Z,100224.78
2023-05-19T05:12:03.091Z,100229.03
2023-05-19T05:14:30.579Z,100228.00
2023-05-19T05:16:57.952Z,100219.44
2023-05-19T05:19:25.154Z,100225.81
2023-05-19T05:21:52.370Z,100213.75
2023-05-19T05:24:20.433Z,100220.50
2023-05-19T05:26:53.085Z,100223.72
2023-05-19T05:29:20.868Z,100231.72
2023-05-19T05:31:47.529Z,100230.81
2023-05-19T05:34:14.436Z,100221.31
2023-05-19T05:36:42.453Z,100221.69
2023-05-19T05:39:09.711Z,100224.28
2023-05-19T05:41:37.933Z,100227.66
2023-05-19T05:44:10.235Z,100229.81
2023-05-19T05:46:39.561Z,100235.16
2023-05-19T05:49:06.635Z,100238.66
2023-05-19T05:51:33.769Z,100244.94
2023-05-19T05:54:02.825Z,100237.34
2023-05-19T05:56:37.041Z,100243.63
2023-05-19T05:59:05.904Z,100243.69
2023-05-19T06:01:34.829Z,100247.88
2023-05-19T06:04:03.631Z,100248.09
2023-05-19T06:06:31.446Z,100248.97
2023-05-19T06:08:59.142Z,100251.59
2023-05-19T06:11:26.168Z,100246.88
2023-05-19T06:13:54.277Z,100243.78
2023-05-19T06:16:41.034Z,100244.06
2023-05-19T06:19:08.047Z,100242.22
2023-05-19T06:21:34.696Z,100244.09
2023-05-19T06:24:01.453Z,100245.44
2023-05-19T06:26:28.084Z,100245.19
2023-05-19T06:28:54.867Z,100248.59
2023-05-19T06:31:22.260Z,100250.63
2023-05-19T06:33:53.793Z,100235.59
2023-05-19T06:36:21.169Z,100239.72
2023-05-19T06:38:48.588Z,100234.66
2023-05-19T06:41:16.430Z,100233.28
2023-05-19T06:43:47.024Z,100233.19
2023-05-19T06:46:14.461Z,100236.63
2023-05-19T06:48:43.275Z,100233.00
2023-05-19T06:51:11.679Z,100238.03
2023-05-19T06:53:40.920Z,100249.03
2023-05-19T06:56:09.178Z,100234.78
2023-05-19T06:58:39.487Z,100234.34
2023-05-19T07:01:06.354Z,100233.06
2023-05-19T07:03:39.241Z,100237.50
2023-05-19T07:06:08.855Z,100237.41
2023-05-19T07:08:37.233Z,100230.00
2023-05-19T07:11:05.819Z,100221.69
2023-05-19T07:13:33.013Z,100225.69
2023-05-19T07:15:59.828Z,100225.94
2023-05-19T07:18:31.796Z,100223.75
2023-05-19T07:20:58.958Z,100219.25
2023-05-19T07:23:25.877Z,100223.50
2023-05-19T07:25:59.862Z,100229.66
2023-05-19T07:28:26.529Z,100230.66
2023-05-19T07:30:53.496Z,100236.25
2023-05-19T07:33:20.746Z,100228.91
2023-05-19T07:35:47.826Z,100225.66
2023-05-19T07:38:14.604Z,100224.94
2023-05-19T07:40:41.376Z,100227.53
2023-05-19T07:43:08.211Z,100225.13
2023-05-19T07:45:35.075Z,100227.53
2023-05-19T07:48:01.818Z,100208.16
2023-05-19T07:50:28.660Z,100203.38
2023-05-19T07:52:55.861Z,100213.06
2023-05-19T07:55:26.242Z,100204.06
2023-05-19T07:57:52.965Z,100199.97
2023-05-19T08:00:19.931Z,100204.16
2023-05-19T08:02:47.839Z,100210.09
2023-05-19T08:05:15.988Z,100207.19
2023-05-19T08:07:42.724Z,100204.00
2023-05-19T08:10:09.521Z,100196.75
2023-05-19T08:12:36.152Z,100206.44
2023-05-19T08:15:02.852Z,100212.25
2023-05-19T08:17:29.556Z,100214.91
2023-05-19T08:19:57.236Z,100215.78
2023-05-19T08:22:23.940Z,100206.94
2023-05-19T08:24:51.744Z,100220.59
2023-05-19T08:27:18.643Z,100212.78
2023-05-19T08:29:45.360Z,100205.19
2023-05-19T08:32:13.396Z,100215.25
2023-05-19T08:34:41.240Z,100210.66
2023-05-19T08:37:07.988Z,100218.50
2023-05-19T08:39:34.955Z,100212.50
2023-05-19T08:42:02.490Z,100202.56
2023-05-19T08:44:30.838Z,100208.72
2023-05-19T08:47:02.806Z,100199.53
2023-05-19T08:49:33.462Z,100199.63
2023-05-19T08:52:15.200Z,100199.34
2023-05-19T08:54:48.324Z,100189.06
2023-05-19T08:57:15.247Z,100198.25
2023-05-19T08:59:43.664Z,100195.22
2023-05-19T09:02:14.061Z,100207.13
2023-05-19T09:04:42.097Z,100190.66
2023-05-19T09:07:09.401Z,100201.75
2023-05-19T09:09:36.090Z,100189.31
2023-05-19T09:12:03.225Z,100198.41
2023-05-19T09:14:30.823Z,100195.19
2023-05-19T09:16:57.694Z,100184.97
2023-05-19T09:19:28.871Z,100187.50
2023-05-19T09:22:03.792Z,100182.44
2023-05-19T09:24:31.571Z,100190.13
2023-05-19T09:27:00.083Z,100182.88
2023-05-19T09:29:27.176Z,100196.69
2023-05-19T09:32:00.520Z,100185.41
2023-05-19T09:34:27.770Z,100184.16
2023-05-19T09:36:54.633Z,100176.78
2023-05-19T09:39:23.102Z,100179.09
2023-05-19T09:41:54.289Z,100189.91
2023-05-19T09:44:21.213Z,100189.44
2023-05-19T09:46:49.721Z,100180.88
2023-05-19T09:49:24.047Z,100173.31
2023-05-19T09:51:57.982Z,100173.16
2023-05-19T09:54:25.695Z,100174.25
2023-05-19T09:57:00.115Z,100175.16
2023-05-19T09:59:30.538Z,100164.28
2023-05-19T10:01:59.969Z,100161.81
2023-05-19T10:04:28.370Z,100150.59
2023-05-19T10:06:59.441Z,100147.81
2023-05-19T10:09:27.818Z,100150.25
2023-05-19T10:11:59.473Z,100156.38
2023-05-19T10:14:29.624Z,100149.81
2023-05-19T10:16:59.822Z,100153.75
2023-05-19T10:19:29.790Z,100149.19
2023-05-19T10:21:57.022Z,100141.81
2023-05-19T10:24:23.711Z,100138.38
2023-05-19T10:26:54.486Z,100152.19
2023-05-19T10:29:27.312Z,100147.25
2023-05-19T10:31:57.158Z,100147.63
2023-05-19T10:34:52.008Z,100148.53
2023-05-19T10:37:28.828Z,100153.84
2023-05-19T10:39:55.917Z,100139.25
2023-05-19T10:42:50.793Z,100145.94
2023-05-19T10:45:23.940Z,100155.81
2023-05-19T10:47:51.464Z,100141.22
2023-05-19T10:50:18.333Z,100140.66
2023-05-19T10:52:53.915Z,100133.53
2023-05-19T10:55:53.827Z,100135.38
2023-05-19T10:58:39.538Z,100137.28
2023-05-19T11:01:33.269Z,100138.34
2023-05-19T11:04:15.767Z,100140.13
2023-05-19T11:06:51.725Z,100139.03
2023-05-19T11:09:20.981Z,100138.97
2023-05-19T11:11:55.423Z,100141.03
2023-05-19T11:14:24.167Z,100143.53
2023-05-19T11:16:52.416Z,100146.81
2023-05-19T11:19:31.267Z,100134.75
2023-05-19T11:22:11.427Z,100147.81
2023-05-19T11:24:47.875Z,100145.94
2023-05-19T11:27:31.642Z,100134.16
2023-05-19T11:29:59.492Z,100140.25
2023-05-19T11:32:31.563Z,100140.69
2023-05-19T11:34:58.416Z,100130.72
2023-05-19T11:37:25.583Z,100138.13
2023-05-19T11:39:53.158Z,100137.50
2023-05-19T11:42:20.136Z,100126.66
2023-05-19T11:44:47.097Z,100127.66
2023-05-19T11:47:17.254Z,100129.97
2023-05-19T11:49:51.962Z,100132.91
2023-05-19T11:52:22.100Z,100128.25
2023-05-19T11:54:49.197Z,100137.59
2023-05-19T11:57:16.081Z,100128.16
2023-05-19T11:59:47.999Z,100126.97
2023-05-19T12:02:21.772Z,100121.53
2023-05-19T12:04:51.770Z,100127.50
2023-05-19T12:07:22.895Z,100112.59
2023-05-19T12:09:55.293Z,100126.81
2023-05-19T12:12:22.976Z,100136.03
2023-05-19T12:14:51.282Z,100134.34
2023-05-19T12:17:20.099Z,100130.88
2023-05-19T12:19:48.729Z,100141.72
2023-05-19T12:22:16.738Z,100136.81
2023-05-19T12:24:45.159Z,100122.47
2023-05-19T12:27:20.048Z,100123.56
2023-05-19T12:29:53.686Z,100112.97
2023-05-19T12:32:27.826Z,100111.44
2023-05-19T12:34:59.124Z,100117.41
2023-05-19T12:37:31.701Z,100116.03
2023-05-19T12:39:58.807Z,100114.75
2023-05-19T12:42:31.442Z,100099.56
2023-05-19T12:45:01.522Z,100123.34
2023-05-19T12:47:33.406Z,100124.06
2023-05-19T12:50:00.276Z,100119.94
2023-05-19T12:52:29.239Z,100117.22
2023-05-19T12:55:07.240Z,100104.56
2023-05-19T12:57:35.078Z,100118.63
2023-05-19T13:00:17.653Z,100105.63
2023-05-19T13:03:00.119Z,100099.31
2023-05-19T13:05:28.455Z,100096.94
2023-05-19T13:07:56.247Z,100093.53
2023-05-19T13:10:23.314Z,100097.22
2023-05-19T13:12:49.966Z,100108.50
2023-05-19T13:15:16.659Z,100098.22
2023-05-19T13:17:46.346Z,100097.59
2023-05-19T13:20:14.513Z,100086.00
2023-05-19T13:22:41.358Z,100095.81
2023-05-19T13:25:08.731Z,100104.97
2023-05-19T13:27:35.877Z,100103.47
2023-05-19T13:30:02.957Z,100106.22
2023-05-19T13:32:29.708Z,100105.13
2023-05-19T13:34:57.349Z,100106.69
2023-05-19T13:37:24.430Z,100098.16
2023-05-19T13:39:51.295Z,100091.59
2023-05-19T13:42:18.277Z,100093.75
2023-05-19T13:44:46.278Z,100096.56
2023-05-19T13:47:13.571Z,100087.53
2023-05-19T13:49:41.378Z,100099.28
2023-05-19T13:52:08.306Z,100096.38
2023-05-19T13:54:35.070Z,100096.59
2023-05-19T13:57:01.763Z,100088.94
2023-05-19T13:59:28.545Z,100096.47
2023-05-19T14:01:55.647Z,100080.06
2023-05-19T14:04:23.768Z,100095.13
2023-05-19T14:06:50.914Z,100097.22
2023-05-19T14:09:17.703Z,100087.47
2023-05-19T14:11:44.435Z,100091.41
2023-05-19T14:14:11.640Z,100080.88
2023-05-19T14:16:42.925Z,100085.09
2023-05-19T14:19:12.518Z,100088.72
2023-05-19T14:21:43.385Z,100087.13
2023-05-19T14:24:12.566Z,100091.44
2023-05-19T14:26:46.416Z,100098.69
2023-05-19T14:29:18.557Z,100096.91
2023-05-19T14:31:49.623Z,100093.25
2023-05-19T14:34:25.595Z,100091.09
2023-05-19T14:36:55.212Z,100096.03
2023-05-19T14:39:24.326Z,100094.63
2023-05-19T14:41:52.928Z,100080.94
2023-05-19T14:44:19.696Z,100086.59
2023-05-19T14:46:46.850Z,100090.97
2023-05-19T14:49:13.983Z,100081.78
2023-05-19T14:51:40.652Z,100080.41
2023-05-19T14:54:08.326Z,100095.72
2023-05-19T14:56:35.431Z,100096.00
2023-05-19T14:59:04.401Z,100102.09
2023-05-19T15:01:31.150Z,100094.13
2023-05-19T15:03:58.717Z,100086.88
2023-05-19T15:06:25.998Z,100093.81
2023-05-19T15:08:52.716Z,100103.66
2023-05-19T15:11:19.355Z,100100.34
2023-05-19T15:13:47.174Z,100106.50
2023-05-19T15:16:16.822Z,100103.22
2023-05-19T15:18:44.514Z,100104.00
2023-05-19T15:21:11.311Z,100103.44
2023-05-19T15:23:38.961Z,100103.72
2023-05-19T15:26:07.709Z,100105.28
2023-05-19T15:28:36.574Z,100111.34
2023-05-19T15:31:04.214Z,100107.41
2023-05-19T15:33:32.397Z,100103.50
2023-05-19T15:36:01.163Z,100110.78
2023-05-19T15:38:30.091Z,100110.25
2023-05-19T15:40:59.075Z,100108.34
2023-05-19T15:43:27.668Z,100111.16
2023-05-19T15:45:57.563Z,100107.66
2023-05-19T15:48:29.285Z,100106.97
2023-05-19T15:50:59.115Z,100115.69
2023-05-19T15:53:27.420Z,100118.44
2023-05-19T15:55:57.888Z,100117.38
2023-05-19T15:58:26.316Z,100113.34
2023-05-19T16:00:54.811Z,100116.88
2023-05-19T16:03:23.520Z,100119.66
2023-05-19T16:05:53.344Z,100119.88
2023-05-19T16:08:21.028Z,100124.00
2023-05-19T16:10:51.093Z,100122.53
2023-05-19T16:13:19.213Z,100121.66
2023-05-19T16:15:47.678Z,100121.38
2023-05-19T16:18:18.917Z,100124.91
2023-05-19T16:20:47.433Z,100132.50
2023-05-19T16:23:15.650Z,100132.81
2023-05-19T16:25:43.584Z,100130.28
2023-05-19T16:28:11.847Z,100131.94
2023-05-19T16:30:42.219Z,100123.94
2023-05-19T16:33:10.607Z,100129.47
2023-05-19T16:35:38.883Z,100132.94
2023-05-19T16:38:07.268Z,100137.72
2023-05-19T16:40:35.748Z,100130.94
2023-05-19T16:43:04.099Z,100132.81
2023-05-19T16:45:32.355Z,100132.03
2023-05-19T16:47:59.475Z,100138.75
2023-05-19T16:50:26.262Z,100146.66
2023-05-19T16:52:53.781Z,100134.53
2023-05-19T16:55:22.633Z,100137.09
2023-05-19T16:57:55.384Z,100143.94
2023-05-19T17:00:26.515Z,100139.31
2023-05-19T17:02:54.980Z,100131.50
2023-05-19T17:05:23.235Z,100138.53
2023-05-19T17:07:53.076Z,100133.75
2023-05-19T17:10:21.301Z,100126.06
2023-05-19T17:12:49.808Z,100126.59
2023-05-19T17:15:20.077Z,100119.66
2023-05-19T17:17:48.409Z,100124.00
2023-05-19T17:20:16.780Z,100125.44
2023-05-19T17:22:45.169Z,100124.22
2023-05-19T17:25:13.176Z,100121.28
2023-05-19T17:27:41.688Z,100113.75
2023-05-19T17:30:10.378Z,100115.81
2023-05-19T17:32:39.861Z,100115.63
2023-05-19T17:35:08.932Z,100119.97
2023-05-19T17:37:37.243Z,100128.53
2023-05-19T17:40:04.851Z,100126.72
2023-05-19T17:42:36.238Z,100123.38
2023-05-19T17:45:08.062Z,100122.38
2023-05-19T17:47:36.654Z,100130.09
2023-05-19T17:50:04.812Z,100131.88
2023-05-19T17:52:33.648Z,100136.38
2023-05-19T17:55:02.301Z,100134.59
2023-05-19T17:57:33.194Z,100135.72
2023-05-19T18:00:01.944Z,100127.63
2023-05-19T18:02:32.955Z,100130.03
2023-05-19T18:05:01.835Z,100132.09
2023-05-19T18:07:32.262Z,100134.50
2023-05-19T18:10:02.267Z,100129.88
2023-05-19T18:12:30.474Z,100124.47
2023-05-19T18:14:58.566Z,100120.78
2023-05-19T18:17:27.855Z,100122.69
2023-05-19T18:19:56.192Z,100120.91
2023-05-19T18:22:24.737Z,100117.00
2023-05-19T18:24:52.756Z,100122.59
2023-05-19T18:27:21.657Z,100113.63
2023-05-19T18:29:49.621Z,100122.16
2023-05-19T18:32:18.392Z,100120.41
2023-05-19T18:34:47.949Z,100120.25
2023-05-19T18:37:16.284Z,100117.84
2023-05-19T18:39:44.529Z,100127.63
2023-05-19T18:42:12.732Z,100125.84
2023-05-19T18:44:42.261Z,100124.50
2023-05-19T18:47:12.240Z,100121.81
2023-05-19T18:49:40.626Z,100124.22
2023-05-19T18:52:09.532Z,100123.50
2023-05-19T18:54:41.320Z,100125.06
2023-05-19T18:57:10.830Z,100129.78
2023-05-19T18:59:39.275Z,100130.41
2023-05-19T19:02:10.006Z,100132.47
2023-05-19T19:04:39.526Z,100138.28
2023-05-19T19:07:07.305Z,100141.25
2023-05-19T19:09:35.511Z,100140.22
2023-05-19T19:12:04.075Z,100131.59
2023-05-19T19:14:32.345Z,100136.03
2023-05-19T19:17:01.246Z,100144.28
2023-05-19T19:19:31.181Z,100143.44
2023-05-19T19:21:59.640Z,100142.47
2023-05-19T19:24:29.046Z,100140.88
2023-05-19T19:26:57.271Z,100146.91
2023-05-19T19:29:27.361Z,100153.22
2023-05-19T19:31:54.454Z,100145.34
2023-05-19T19:34:21.328Z,100144.31
2023-05-19T19:36:48.162Z,100147.53
2023-05-19T19:39:14.868Z,100143.31
2023-05-19T19:41:41.509Z,100145.16
2023-05-19T19:44:08.259Z,100146.00
2023-05-19T19:46:35.713Z,100146.06
2023-05-19T19:49:02.638Z,100144.78
2023-05-19T19:51:29.493Z,100144.00
2023-05-19T19:53:57.435Z,100146.13
2023-05-19T19:56:25.053Z,100143.50
2023-05-19T19:58:51.911Z,100146.66
2023-05-19T20:01:23.451Z,100144.56
2023-05-19T20:03:50.611Z,100143.19
2023-05-19T20:06:17.404Z,100151.38
2023-05-19T20:08:44.289Z,100145.81
2023-05-19T20:11:11.044Z,100143.97
2023-05-19T20:13:37.636Z,100139.22
2023-05-19T20:16:04.764Z,100147.41
2023-05-19T20:18:31.423Z,100147.22
2023-05-19T20:20:58.111Z,100145.88
2023-05-19T20:23:24.760Z,100148.28
2023-05-19T20:26:10.288Z,100135.69
2023-05-19T20:28:38.128Z,100141.22
2023-05-19T20:31:05.144Z,100148.53
2023-05-19T20:33:32.042Z,100149.31
2023-05-19T20:35:58.681Z,100146.22
2023-05-19T20:38:25.462Z,100146.25
2023-05-19T20:40:52.692Z,100146.50
2023-05-19T20:43:19.411Z,100151.50
2023-05-19T20:45:46.461Z,100155.47
2023-05-19T20:48:13.324Z,100153.59
2023-05-19T20:50:40.103Z,100154.09
2023-05-19T20:53:07.359Z,100143.63
2023-05-19T20:55:36.172Z,100151.78
2023-05-19T20:58:03.210Z,100157.03
2023-05-19T21:00:30.742Z,100147.03
2023-05-19T21:02:57.728Z,100149.44
2023-05-19T21:05:24.735Z,100149.97
2023-05-19T21:07:51.458Z,100145.28
2023-05-19T21:10:18.404Z,100148.16
2023-05-19T21:12:46.373Z,100149.47
2023-05-19T21:15:13.101Z,100148.16
2023-05-19T21:17:39.784Z,100140.84
2023-05-19T21:20:06.975Z,100140.31
2023-05-19T21:22:35.639Z,100147.66
2023-05-19T21:25:02.359Z,100143.22
2023-05-19T21:27:29.153Z,100143.22
2023-05-19T21:29:55.824Z,100147.66
2023-05-19T21:32:22.497Z,100149.78
2023-05-19T21:34:49.141Z,100147.16
2023-05-19T21:37:17.324Z,100155.25
2023-05-19T21:39:44.640Z,100154.75
2023-05-19T21:42:11.278Z,100151.88
2023-05-19T21:44:38.046Z,100156.88
2023-05-19T21:47:04.791Z,100152.41
2023-05-19T21:49:31.615Z,100150.59
2023-05-19T21:51:58.568Z,100152.66
2023-05-19T21:54:25.329Z,100155.56
2023-05-19T21:56:52.262Z,100150.09
2023-05-19T21:59:23.106Z,100146.41
2023-05-19T22:01:49.791Z,100145.63
2023-05-19T22:04:18.528Z,100156.16
2023-05-19T22:06:46.241Z,100146.97
2023-05-19T22:09:12.931Z,100144.56
2023-05-19T22:11:40.140Z,100138.53
2023-05-19T22:14:07.065Z,100141.16
2023-05-19T22:16:33.820Z,100137.56
2023-05-19T22:19:00.673Z,100145.19
2023-05-19T22:21:27.425Z,100136.00
2023-05-19T22:23:54.084Z,100140.97
2023-05-19T22:26:21.666Z,100145.69
2023-05-19T22:28:49.418Z,100148.03
2023-05-19T22:31:16.705Z,100144.09
2023-05-19T22:33:43.437Z,100143.84
2023-05-19T22:36:11.048Z,100141.25
2023-05-19T22:38:37.826Z,100153.00
2023-05-19T22:41:04.733Z,100150.13
2023-05-19T22:43:31.460Z,100139.19
2023-05-19T22:45:58.240Z,100140.22
2023-05-19T22:48:24.913Z,100126.31
2023-05-19T22:50:51.556Z,100139.41
2023-05-19T22:53:18.229Z,100137.31
2023-05-19T22:55:44.897Z,100137.28
2023-05-19T22:58:11.540Z,100134.38
2023-05-19T23:00:38.179Z,100131.00
2023-05-19T23:03:04.935Z,100128.38
2023-05-19T23:05:32.046Z,100127.56
2023-05-19T23:07:58.988Z,100129.44
2023-05-19T23:10:25.641Z,100120.53
2023-05-19T23:12:52.255Z,100126.06
2023-05-19T23:15:19.000Z,100130.28
2023-05-19T23:17:45.759Z,100125.34
2023-05-19T23:20:13.218Z,100128.22
2023-05-19T23:22:39.873Z,100126.88
2023-05-19T23:25:07.881Z,100137.66
2023-05-19T23:27:37.656Z,100144.50
2023-05-19T23:30:04.750Z,100143.97
2023-05-19T23:32:31.440Z,100140.81
2023-05-19T23:34:58.180Z,100144.78
2023-05-19T23:37:24.947Z,100143.75
2023-05-19T23:39:51.619Z,100134.06
2023-05-19T23:42:18.290Z,100133.03
2023-05-19T23:44:44.971Z,100136.16
2023-05-19T23:47:11.728Z,100129.38
2023-05-19T23:49:38.643Z,100128.34
2023-05-19T23:52:05.777Z,100128.59
2023-05-19T23:54:32.448Z,100128.59
2023-05-19T23:56:59.423Z,100119.69
2023-05-19T23:59:26.113Z,100118.41
